createdAt,value
2022-10-06T00:00:28.786Z,4.40
2022-10-06T00:02:58.544Z,2.97
2022-10-06T00:05:28.298Z,3.63
2022-10-06T00:07:58.095Z,1.88
2022-10-06T00:10:28.076Z,1.80
2022-10-06T00:12:57.838Z,2.25
2022-10-06T00:15:28.636Z,1.98
2022-10-06T00:17:58.864Z,2.38
2022-10-06T00:20:28.808Z,1.90
2022-10-06T00:23:01.565Z,1.95
2022-10-06T00:25:31.292Z,2.20
2022-10-06T00:28:01.167Z,2.78
2022-10-06T00:30:32.698Z,2.17
2022-10-06T00:33:03.336Z,2.17
2022-10-06T00:35:35.268Z,1.50
2022-10-06T00:38:05.149Z,2.10
2022-10-06T00:40:35.165Z,1.45
2022-10-06T00:43:05.902Z,2.25
2022-10-06T00:45:36.856Z,2.83
2022-10-06T00:48:09.656Z,2.53
2022-10-06T00:50:39.364Z,3.20
2022-10-06T00:53:09.182Z,3.05
2022-10-06T00:55:38.858Z,1.50
2022-10-06T00:58:08.514Z,1.15
2022-10-06T01:00:38.370Z,0.90
2022-10-06T01:03:08.177Z,1.02
2022-10-06T01:05:42.897Z,0.90
2022-10-06T01:08:12.671Z,0.90
2022-10-06T01:10:42.563Z,0.55
2022-10-06T01:13:13.175Z,1.25
2022-10-06T01:15:50.580Z,1.00
2022-10-06T01:18:20.343Z,0.70
2022-10-06T01:20:58.454Z,1.67
2022-10-06T01:23:28.161Z,0.90
2022-10-06T01:25:57.813Z,1.05
2022-10-06T01:28:28.037Z,0.90
2022-10-06T01:30:59.388Z,0.75
2022-10-06T01:33:31.222Z,0.90
2022-10-06T01:36:01.198Z,1.10
2022-10-06T01:38:36.085Z,1.13
2022-10-06T01:41:05.909Z,1.92
2022-10-06T01:43:35.584Z,1.50
2022-10-06T01:46:14.855Z,1.23
2022-10-06T01:48:47.994Z,1.10
2022-10-06T01:51:17.804Z,1.52
2022-10-06T01:53:47.507Z,2.30
2022-10-06T01:56:17.405Z,1.10
2022-10-06T01:58:47.285Z,1.67
2022-10-06T02:01:17.112Z,0.85
2022-10-06T02:03:47.095Z,1.33
2022-10-06T02:06:16.971Z,1.50
2022-10-06T02:08:47.025Z,2.38
2022-10-06T02:11:16.862Z,1.35
2022-10-06T02:13:46.625Z,1.00
2022-10-06T02:16:16.587Z,1.17
2022-10-06T02:18:46.286Z,1.10
2022-10-06T02:21:20.222Z,1.35
2022-10-06T02:23:50.192Z,1.35
2022-10-06T02:26:20.631Z,1.00
2022-10-06T02:28:51.502Z,0.90
2022-10-06T02:31:21.761Z,0.73
2022-10-06T02:33:51.504Z,0.98
2022-10-06T02:36:21.408Z,0.47
2022-10-06T02:38:51.154Z,0.98
2022-10-06T02:41:20.914Z,1.70
2022-10-06T02:43:51.024Z,1.10
2022-10-06T02:46:21.233Z,2.25
2022-10-06T02:48:51.203Z,1.60
2022-10-06T02:51:21.575Z,1.23
2022-10-06T02:53:51.724Z,0.82
2022-10-06T02:56:22.189Z,1.08
2022-10-06T02:58:54.943Z,1.10
2022-10-06T03:01:25.640Z,0.98
2022-10-06T03:03:55.609Z,0.93
2022-10-06T03:06:26.180Z,1.05
2022-10-06T03:08:56.406Z,0.82
2022-10-06T03:11:27.363Z,0.52
2022-10-06T03:13:57.064Z,0.77
2022-10-06T03:16:31.665Z,0.90
2022-10-06T03:19:01.688Z,0.82
2022-10-06T03:21:32.686Z,1.13
2022-10-06T03:24:02.544Z,0.70
2022-10-06T03:26:36.000Z,1.27
2022-10-06T03:29:11.149Z,1.20
2022-10-06T03:31:42.642Z,1.02
2022-10-06T03:34:13.334Z,2.13
2022-10-06T03:36:48.498Z,1.17
2022-10-06T03:39:18.426Z,1.25
2022-10-06T03:41:48.389Z,1.20
2022-10-06T03:44:18.394Z,1.25
2022-10-06T03:46:48.161Z,1.27
2022-10-06T03:49:27.329Z,0.90
2022-10-06T03:51:57.074Z,0.65
2022-10-06T03:54:27.008Z,0.50
2022-10-06T03:56:56.768Z,0.70
2022-10-06T03:59:26.966Z,0.68
2022-10-06T04:01:57.526Z,0.60
2022-10-06T04:04:27.781Z,0.50
2022-10-06T04:06:57.806Z,0.93
2022-10-06T04:09:27.426Z,0.70
2022-10-06T04:11:57.253Z,0.85
2022-10-06T04:14:29.583Z,0.73
2022-10-06T04:16:59.279Z,1.42
2022-10-06T04:19:29.049Z,1.73
2022-10-06T04:21:58.821Z,0.85
2022-10-06T04:24:28.737Z,1.30
2022-10-06T04:27:18.041Z,1.40
2022-10-06T04:29:47.774Z,1.13
2022-10-06T04:32:18.420Z,1.00
2022-10-06T04:34:48.268Z,1.15
2022-10-06T04:37:17.878Z,0.90
2022-10-06T04:39:47.631Z,1.08
2022-10-06T04:42:17.424Z,1.45
2022-10-06T04:44:47.230Z,1.52
2022-10-06T04:47:16.892Z,1.98
2022-10-06T04:49:46.572Z,1.17
2022-10-06T04:52:16.450Z,1.67
2022-10-06T04:54:46.274Z,1.17
2022-10-06T04:57:15.829Z,0.55
2022-10-06T05:00:07.953Z,0.55
2022-10-06T05:02:41.320Z,1.73
2022-10-06T05:05:11.442Z,1.30
2022-10-06T05:07:41.259Z,0.75
2022-10-06T05:10:11.351Z,0.50
2022-10-06T05:12:41.244Z,0.63
2022-10-06T05:15:11.971Z,0.75
2022-10-06T05:17:42.084Z,0.40
2022-10-06T05:20:13.053Z,0.73
2022-10-06T05:22:42.866Z,0.70
2022-10-06T05:25:13.108Z,0.43
2022-10-06T05:27:43.249Z,0.93
2022-10-06T05:30:13.445Z,1.13
2022-10-06T05:32:43.813Z,1.50
2022-10-06T05:35:13.689Z,0.88
2022-10-06T05:37:44.191Z,0.80
2022-10-06T05:40:17.846Z,0.70
2022-10-06T05:42:47.724Z,1.05
2022-10-06T05:45:17.497Z,0.60
2022-10-06T05:47:47.460Z,0.90
2022-10-06T05:50:17.175Z,0.75
2022-10-06T05:52:47.059Z,0.70
2022-10-06T05:55:26.522Z,0.90
2022-10-06T05:57:58.642Z,0.50
2022-10-06T06:00:28.765Z,0.90
2022-10-06T06:02:58.450Z,0.52
2022-10-06T06:05:28.259Z,0.95
2022-10-06T06:07:57.916Z,1.20
2022-10-06T06:10:27.801Z,0.98
2022-10-06T06:12:57.448Z,0.98
2022-10-06T06:15:45.020Z,0.70
2022-10-06T06:18:15.334Z,1.80
2022-10-06T06:20:45.286Z,1.00
2022-10-06T06:23:14.996Z,0.75
2022-10-06T06:25:45.669Z,1.30
2022-10-06T06:28:15.516Z,1.10
2022-10-06T06:30:45.180Z,0.88
2022-10-06T06:33:14.948Z,0.80
2022-10-06T06:35:45.455Z,0.70
2022-10-06T06:38:15.285Z,0.40
2022-10-06T06:40:48.603Z,0.60
2022-10-06T06:43:19.563Z,0.73
2022-10-06T06:45:49.192Z,0.85
2022-10-06T06:48:18.980Z,0.60
2022-10-06T06:50:48.566Z,0.98
2022-10-06T06:53:18.323Z,0.77
2022-10-06T06:55:54.339Z,0.60
2022-10-06T06:58:24.045Z,2.33
2022-10-06T07:00:53.790Z,1.50
2022-10-06T07:03:45.210Z,1.27
2022-10-06T07:06:14.908Z,1.33
2022-10-06T07:08:45.992Z,1.10
2022-10-06T07:11:22.488Z,1.40
2022-10-06T07:14:03.202Z,0.70
2022-10-06T07:16:51.459Z,0.52
2022-10-06T07:19:39.600Z,0.60
2022-10-06T07:22:34.154Z,0.60
2022-10-06T07:25:13.321Z,1.15
2022-10-06T07:27:52.646Z,0.60
2022-10-06T07:30:27.257Z,1.50
2022-10-06T07:32:57.580Z,0.95
2022-10-06T07:35:27.473Z,0.80
2022-10-06T07:37:59.163Z,0.80
2022-10-06T07:40:28.764Z,0.77
2022-10-06T07:42:58.418Z,0.80
2022-10-06T07:45:42.723Z,0.93
2022-10-06T07:48:12.460Z,0.73
2022-10-06T07:50:43.577Z,2.05
2022-10-06T07:53:13.535Z,0.88
2022-10-06T07:55:43.771Z,0.70
2022-10-06T07:58:15.042Z,1.15
2022-10-06T08:00:44.975Z,0.52
2022-10-06T08:03:20.070Z,1.77
2022-10-06T08:05:50.590Z,1.20
2022-10-06T08:08:20.663Z,0.88
2022-10-06T08:10:55.535Z,0.65
2022-10-06T08:13:25.291Z,0.70
2022-10-06T08:15:57.777Z,0.80
2022-10-06T08:18:44.997Z,1.15
2022-10-06T08:21:16.786Z,1.15
2022-10-06T08:23:47.217Z,0.98
2022-10-06T08:26:17.251Z,0.90
2022-10-06T08:28:49.175Z,1.08
2022-10-06T08:31:20.000Z,0.47
2022-10-06T08:33:50.578Z,0.65
2022-10-06T08:36:21.075Z,1.13
2022-10-06T08:38:53.599Z,1.10
2022-10-06T08:41:23.400Z,1.85
2022-10-06T08:44:21.843Z,1.52
2022-10-06T08:47:03.909Z,1.02
2022-10-06T08:49:40.721Z,0.80
2022-10-06T08:52:16.547Z,0.70
2022-10-06T08:55:03.104Z,0.95
2022-10-06T08:57:39.189Z,0.60
2022-10-06T09:00:18.170Z,0.70
2022-10-06T09:02:51.112Z,0.50
2022-10-06T09:05:26.525Z,0.63
2022-10-06T09:08:02.359Z,0.85
2022-10-06T09:10:43.948Z,0.98
2022-10-06T09:13:22.054Z,1.23
2022-10-06T09:15:53.859Z,1.25
2022-10-06T09:18:43.502Z,1.67
2022-10-06T09:21:19.991Z,0.90
2022-10-06T09:23:51.869Z,0.98
2022-10-06T09:26:25.812Z,1.05
2022-10-06T09:28:56.513Z,1.73
2022-10-06T09:31:27.107Z,1.40
2022-10-06T09:33:57.945Z,1.08
2022-10-06T09:36:27.878Z,1.10
2022-10-06T09:38:58.049Z,1.30
2022-10-06T09:41:34.581Z,1.10
2022-10-06T09:44:08.521Z,1.63
2022-10-06T09:46:43.314Z,1.40
2022-10-06T09:49:19.380Z,1.25
2022-10-06T09:52:04.301Z,1.92
2022-10-06T09:54:36.216Z,2.17
2022-10-06T09:57:10.319Z,2.13
2022-10-06T09:59:43.747Z,1.73
2022-10-06T10:02:31.239Z,1.50
2022-10-06T10:05:00.968Z,3.72
2022-10-06T10:07:31.377Z,5.53
2022-10-06T10:10:33.462Z,13.00
2022-10-06T10:13:03.107Z,29.60
2022-10-06T10:15:33.067Z,33.05
2022-10-06T10:18:04.448Z,40.72
2022-10-06T10:20:35.790Z,45.50
2022-10-06T10:23:31.650Z,41.28
2022-10-06T10:26:01.797Z,43.10
2022-10-06T10:28:52.502Z,34.80
2022-10-06T10:31:39.608Z,20.00
2022-10-06T10:34:29.467Z,15.50
2022-10-06T10:37:05.131Z,14.30
2022-10-06T10:39:41.223Z,12.07
2022-10-06T10:42:34.629Z,11.38
2022-10-06T10:45:08.470Z,10.20
2022-10-06T10:47:39.268Z,6.63
2022-10-06T10:50:12.027Z,7.72
2022-10-06T10:52:43.054Z,7.35
2022-10-06T10:55:28.649Z,6.45
2022-10-06T10:58:02.091Z,6.40
2022-10-06T11:00:41.915Z,6.40
2022-10-06T11:03:13.522Z,4.70
2022-10-06T11:05:49.745Z,5.30
2022-10-06T11:08:26.447Z,4.90
2022-10-06T11:11:03.380Z,6.68
2022-10-06T11:13:36.286Z,5.13
2022-10-06T11:16:10.408Z,6.80
2022-10-06T11:18:43.179Z,4.65
2022-10-06T11:21:18.917Z,3.38
2022-10-06T11:23:52.262Z,3.85
2022-10-06T11:26:37.299Z,3.53
2022-10-06T11:29:10.341Z,3.15
2022-10-06T11:31:40.764Z,2.35
2022-10-06T11:34:10.532Z,1.67
2022-10-06T11:36:41.044Z,1.90
2022-10-06T11:39:18.131Z,1.30
2022-10-06T11:42:00.561Z,1.65
2022-10-06T11:44:37.240Z,1.65
2022-10-06T11:47:08.601Z,2.22
2022-10-06T11:49:41.128Z,2.58
2022-10-06T11:52:10.803Z,2.03
2022-10-06T11:54:44.347Z,2.60
2022-10-06T11:57:30.948Z,2.90
2022-10-06T12:00:13.322Z,3.28
2022-10-06T12:02:43.469Z,4.80
2022-10-06T12:05:45.946Z,5.03
2022-10-06T12:08:03.440Z,6.40
2022-10-06T12:10:34.095Z,8.35
2022-10-06T12:13:31.820Z,8.02
2022-10-06T12:19:20.988Z,8.70
2022-10-06T12:22:18.999Z,8.55
2022-10-06T12:24:55.215Z,9.35
2022-10-06T12:27:43.178Z,9.68
2022-10-06T12:30:16.315Z,9.45
2022-10-06T12:32:53.389Z,9.45
2022-10-06T12:35:27.751Z,10.18
2022-10-06T12:38:00.121Z,9.40
2022-10-06T12:40:42.706Z,9.02
2022-10-06T12:43:34.016Z,10.50
2022-10-06T12:46:23.764Z,9.90
2022-10-06T12:49:13.658Z,8.68
2022-10-06T12:51:47.780Z,10.57
2022-10-06T12:54:22.624Z,9.32
2022-10-06T12:57:01.910Z,9.20
2022-10-06T12:59:33.619Z,8.48
2022-10-06T13:02:04.765Z,7.32
2022-10-06T13:04:36.382Z,6.43
2022-10-06T13:07:08.711Z,7.25
2022-10-06T13:09:39.251Z,5.85
2022-10-06T13:12:25.434Z,5.30
2022-10-06T13:15:13.394Z,5.70
2022-10-06T13:17:49.461Z,4.90
2022-10-06T13:20:28.950Z,4.65
2022-10-06T13:22:59.648Z,6.68
2022-10-06T13:25:30.613Z,6.43
2022-10-06T13:28:03.641Z,5.65
2022-10-06T13:30:38.453Z,5.45
2022-10-06T13:33:12.362Z,6.13
2022-10-06T13:35:43.010Z,8.15
2022-10-06T13:38:13.189Z,7.03
2022-10-06T13:40:45.283Z,7.50
2022-10-06T13:43:19.631Z,7.35
2022-10-06T13:45:50.025Z,6.95
2022-10-06T13:48:21.911Z,7.18
2022-10-06T13:50:54.461Z,6.82
2022-10-06T13:53:33.174Z,6.63
2022-10-06T13:56:03.132Z,6.47
2022-10-06T13:58:34.257Z,5.90
2022-10-06T14:01:06.707Z,6.97
2022-10-06T14:03:39.653Z,6.13
2022-10-06T14:06:10.679Z,6.68
2022-10-06T14:08:40.723Z,6.18
2022-10-06T14:11:10.910Z,4.70
2022-10-06T14:13:41.017Z,5.30
2022-10-06T14:16:21.059Z,5.13
2022-10-06T14:19:01.366Z,4.72
2022-10-06T14:21:31.816Z,4.95
2022-10-06T14:24:06.016Z,4.43
2022-10-06T14:26:39.910Z,4.90
2022-10-06T14:29:09.732Z,5.40
2022-10-06T14:31:39.963Z,5.63
2022-10-06T14:34:15.957Z,5.25
2022-10-06T14:36:46.489Z,5.28
2022-10-06T14:39:16.743Z,5.43
2022-10-06T14:41:47.253Z,4.93
2022-10-06T14:44:17.654Z,6.55
2022-10-06T14:46:49.681Z,7.28
2022-10-06T14:49:19.808Z,6.70
2022-10-06T14:51:49.693Z,6.60
2022-10-06T14:54:19.644Z,8.25
2022-10-06T14:56:49.323Z,7.55
2022-10-06T14:59:19.649Z,6.75
2022-10-06T15:01:50.678Z,5.80
2022-10-06T15:04:28.450Z,5.93
2022-10-06T15:07:16.408Z,6.10
2022-10-06T15:09:46.194Z,5.68
2022-10-06T15:12:16.333Z,4.45
2022-10-06T15:14:46.071Z,5.28
2022-10-06T15:17:15.876Z,4.75
2022-10-06T15:19:45.877Z,5.40
2022-10-06T15:22:15.591Z,5.00
2022-10-06T15:24:50.083Z,5.53
2022-10-06T15:27:37.739Z,5.90
2022-10-06T15:30:08.004Z,6.82
2022-10-06T15:32:38.512Z,6.63
2022-10-06T15:35:08.782Z,9.38
2022-10-06T15:37:40.932Z,8.45
2022-10-06T15:40:11.206Z,8.90
2022-10-06T15:42:41.044Z,8.10
2022-10-06T15:45:10.996Z,6.40
2022-10-06T15:47:40.761Z,6.82
2022-10-06T15:50:13.958Z,6.95
2022-10-06T15:52:47.184Z,4.82
2022-10-06T15:55:16.917Z,4.93
2022-10-06T15:57:46.807Z,3.95
2022-10-06T16:00:16.731Z,3.55
2022-10-06T16:02:46.588Z,4.00
2022-10-06T16:05:36.030Z,3.22
2022-10-06T16:08:05.824Z,3.63
2022-10-06T16:10:35.552Z,4.05
2022-10-06T16:13:05.347Z,3.03
2022-10-06T16:15:35.044Z,3.15
2022-10-06T16:18:04.727Z,4.38
2022-10-06T16:20:34.430Z,3.95
2022-10-06T16:23:04.124Z,3.00
2022-10-06T16:25:34.051Z,3.65
2022-10-06T16:28:03.854Z,4.40
2022-10-06T16:30:33.583Z,3.17
2022-10-06T16:33:03.659Z,3.60
2022-10-06T16:35:33.463Z,4.18
2022-10-06T16:38:03.363Z,4.82
2022-10-06T16:40:32.982Z,5.45
2022-10-06T16:43:02.942Z,4.25
2022-10-06T16:45:32.601Z,4.97
2022-10-06T16:48:02.506Z,5.88
2022-10-06T16:50:32.341Z,4.85
2022-10-06T16:53:02.009Z,5.03
2022-10-06T16:55:31.812Z,6.43
2022-10-06T16:58:01.433Z,5.07
2022-10-06T17:00:31.143Z,5.25
2022-10-06T17:03:00.810Z,5.38
2022-10-06T17:05:31.101Z,5.93
2022-10-06T17:08:00.792Z,5.90
2022-10-06T17:10:30.423Z,6.63
2022-10-06T17:13:00.186Z,4.55
2022-10-06T17:15:33.409Z,5.80
2022-10-06T17:18:03.456Z,6.68
2022-10-06T17:20:33.174Z,4.18
2022-10-06T17:23:03.040Z,4.45
2022-10-06T17:25:32.787Z,4.43
2022-10-06T17:28:02.666Z,4.10
2022-10-06T17:30:32.451Z,3.58
2022-10-06T17:33:02.637Z,2.92
2022-10-06T17:35:32.636Z,3.53
2022-10-06T17:38:03.950Z,3.63
2022-10-06T17:40:33.809Z,3.45
2022-10-06T17:43:03.360Z,3.10
2022-10-06T17:45:33.264Z,3.53
2022-10-06T17:48:04.141Z,3.72
2022-10-06T17:50:34.072Z,3.75
2022-10-06T17:53:03.972Z,4.28
2022-10-06T17:55:33.599Z,3.95
2022-10-06T17:58:03.218Z,3.05
2022-10-06T18:00:33.108Z,3.63
2022-10-06T18:03:03.003Z,3.58
2022-10-06T18:05:33.271Z,3.40
2022-10-06T18:08:03.235Z,3.00
2022-10-06T18:10:51.353Z,2.63
2022-10-06T18:13:21.062Z,2.88
2022-10-06T18:15:51.031Z,3.63
2022-10-06T18:18:26.549Z,3.95
2022-10-06T18:20:59.993Z,3.50
2022-10-06T18:23:29.790Z,3.45
2022-10-06T18:26:03.250Z,3.47
2022-10-06T18:28:33.257Z,3.03
2022-10-06T18:31:03.277Z,2.45
2022-10-06T18:36:25.520Z,2.75
2022-10-06T18:38:57.064Z,2.92
2022-10-06T18:41:28.951Z,3.42
2022-10-06T18:43:58.804Z,4.78
2022-10-06T18:46:47.175Z,4.63
2022-10-06T18:49:20.524Z,4.30
2022-10-06T18:51:58.334Z,4.15
2022-10-06T18:54:28.934Z,7.15
2022-10-06T18:56:58.681Z,5.68
2022-10-06T18:59:29.007Z,6.22
2022-10-06T19:01:59.729Z,4.57
2022-10-06T19:04:29.613Z,5.18
2022-10-06T19:06:59.228Z,5.57
2022-10-06T19:09:29.616Z,6.07
2022-10-06T19:12:00.399Z,5.35
2022-10-06T19:14:39.055Z,5.05
2022-10-06T19:17:15.573Z,4.13
2022-10-06T19:19:46.649Z,4.43
2022-10-06T19:22:17.047Z,4.72
2022-10-06T19:24:49.173Z,4.93
2022-10-06T19:27:25.364Z,3.55
2022-10-06T19:29:55.893Z,3.58
2022-10-06T19:32:27.383Z,3.50
2022-10-06T19:35:00.339Z,4.18
2022-10-06T19:37:30.815Z,3.70
2022-10-06T19:40:00.641Z,3.30
2022-10-06T19:42:48.618Z,3.75
2022-10-06T19:45:18.918Z,2.75
2022-10-06T19:47:48.511Z,3.55
2022-10-06T19:50:18.799Z,4.05
2022-10-06T19:52:48.490Z,2.88
2022-10-06T19:55:18.954Z,3.22
2022-10-06T19:57:48.776Z,3.72
2022-10-06T20:00:19.294Z,3.17
2022-10-06T20:02:49.182Z,4.28
2022-10-06T20:05:19.142Z,3.30
2022-10-06T20:07:52.473Z,3.63
2022-10-06T20:10:22.190Z,3.35
2022-10-06T20:12:52.022Z,3.55
2022-10-06T20:15:22.025Z,3.63
2022-10-06T20:17:51.785Z,2.97
2022-10-06T20:20:21.842Z,4.07
2022-10-06T20:22:51.756Z,3.65
2022-10-06T20:25:21.585Z,3.67
2022-10-06T20:27:51.648Z,3.60
2022-10-06T20:30:21.348Z,3.63
2022-10-06T20:32:51.233Z,3.45
2022-10-06T20:35:20.925Z,3.85
2022-10-06T20:37:50.828Z,3.40
2022-10-06T20:40:38.306Z,4.30
2022-10-06T20:43:08.345Z,3.85
2022-10-06T20:45:38.122Z,3.28
2022-10-06T20:48:07.833Z,3.80
2022-10-06T20:50:37.733Z,3.88
2022-10-06T20:53:07.773Z,4.60
2022-10-06T20:55:37.696Z,3.35
2022-10-06T20:58:10.745Z,4.32
2022-10-06T21:00:40.896Z,3.35
2022-10-06T21:03:10.730Z,3.17
2022-10-06T21:05:40.605Z,2.92
2022-10-06T21:08:10.316Z,2.25
2022-10-06T21:10:39.945Z,3.13
2022-10-06T21:13:09.606Z,3.13
2022-10-06T21:15:39.445Z,2.50
2022-10-06T21:18:09.210Z,2.33
2022-10-06T21:20:41.838Z,2.85
2022-10-06T21:23:14.711Z,1.90
2022-10-06T21:25:44.734Z,2.03
2022-10-06T21:28:15.252Z,2.10
2022-10-06T21:30:45.515Z,2.80
2022-10-06T21:33:16.120Z,2.88
2022-10-06T21:35:46.655Z,2.22
2022-10-06T21:38:16.716Z,2.80
2022-10-06T21:40:46.413Z,2.10
2022-10-06T21:43:16.331Z,2.63
2022-10-06T21:46:00.822Z,2.30
2022-10-06T21:48:39.209Z,2.28
2022-10-06T21:51:08.849Z,3.03
2022-10-06T21:53:38.659Z,1.83
2022-10-06T21:56:08.425Z,51.03
2022-10-06T21:58:38.088Z,5.20
2022-10-06T22:01:08.208Z,4.85
2022-10-06T22:03:38.721Z,3.88
2022-10-06T22:06:09.095Z,3.97
2022-10-06T22:08:39.390Z,3.90
2022-10-06T22:11:15.726Z,2.70
2022-10-06T22:13:49.342Z,3.17
2022-10-06T22:16:20.338Z,2.40
2022-10-06T22:18:50.010Z,3.10
2022-10-06T22:21:20.604Z,3.22
2022-10-06T22:23:50.784Z,2.90
2022-10-06T22:26:20.583Z,3.50
2022-10-06T22:28:50.818Z,3.17
2022-10-06T22:31:25.479Z,3.15
2022-10-06T22:33:57.074Z,2.85
2022-10-06T22:36:27.280Z,2.85
2022-10-06T22:38:57.301Z,4.40
2022-10-06T22:41:27.208Z,2.50
2022-10-06T22:44:00.245Z,2.63
2022-10-06T22:46:30.792Z,3.78
2022-10-06T22:49:00.645Z,3.05
2022-10-06T22:51:30.527Z,3.13
2022-10-06T22:54:01.180Z,4.00
2022-10-06T22:56:31.347Z,3.63
2022-10-06T22:59:01.046Z,4.10
2022-10-06T23:01:31.010Z,4.78
2022-10-06T23:04:00.701Z,4.45
2022-10-06T23:06:33.665Z,3.38
2022-10-06T23:09:04.909Z,4.18
2022-10-06T23:11:34.588Z,4.97
2022-10-06T23:14:32.910Z,4.68
2022-10-06T23:17:02.580Z,4.00
2022-10-06T23:19:32.161Z,3.92
2022-10-06T23:22:02.043Z,4.45
2022-10-06T23:24:32.049Z,4.20
2022-10-06T23:27:05.859Z,4.00
2022-10-06T23:29:36.232Z,3.88
2022-10-06T23:32:06.485Z,3.65
2022-10-06T23:34:36.729Z,2.83
2022-10-06T23:37:06.589Z,3.92
2022-10-06T23:39:36.435Z,3.13
2022-10-06T23:42:06.566Z,2.85
2022-10-06T23:44:39.748Z,2.58
2022-10-06T23:47:09.478Z,2.63
2022-10-06T23:49:39.157Z,3.30
2022-10-06T23:52:08.798Z,2.20
2022-10-06T23:54:38.572Z,2.47
2022-10-06T23:57:08.249Z,3.20
2022-10-06T23:59:37.908Z,2.10
